Time;durP1;ratioP1;P1;durP2;ratioP2;P2;SDS_P1;SDS_P2;PMS_P1;PMS_P2;Temp;Humidity;BMP_temperature;BMP_pressure;BME280_temperature;BME280_humidity;BME280_pressure;Samples;Min_cycle;Max_cycle;Signal;HPM_P1;HPM_P2
2022/09/26 00:03:53;;;;;;;5.70;4.97;;;;;;;11.06;100.00;97769.63;15327669;19;20026;-79
2022/09/26 00:09:17;;;;;;;5.68;4.75;;;;;;;11.07;100.00;97752.44;15331800;19;20050;-80
2022/09/26 00:14:48;;;;;;;5.35;4.82;;;;;;;11.09;100.00;97749.56;15326639;19;20018;-79
2022/09/26 00:20:15;;;;;;;6.10;5.07;;;;;;;11.08;100.00;97751.44;15315848;19;20578;-80
2022/09/26 00:25:40;;;;;;;5.35;4.60;;;;;;;11.09;100.00;97746.88;15309346;19;20018;-81
2022/09/26 00:31:06;;;;;;;6.28;5.68;;;;;;;11.08;100.00;97745.19;15311445;19;20018;-79
2022/09/26 00:36:34;;;;;;;6.50;5.45;;;;;;;11.07;100.00;97741.66;15305365;19;20011;-80
2022/09/26 00:41:59;;;;;;;9.43;6.60;;;;;;;11.07;100.00;97743.50;15306406;19;20494;-83
2022/09/26 00:47:49;;;;;;;10.57;7.10;;;;;;;11.04;100.00;97744.72;15292778;19;20102;-80
2022/09/26 00:53:19;;;;;;;9.90;6.70;;;;;;;11.04;100.00;97738.50;15311721;19;20018;-80
2022/09/26 00:58:50;;;;;;;9.30;7.07;;;;;;;11.02;100.00;97718.97;15299505;19;20078;-76
2022/09/26 01:04:15;;;;;;;7.23;6.53;;;;;;;10.98;100.00;97715.81;15286782;19;20014;-76
2022/09/26 01:09:42;;;;;;;9.80;7.32;;;;;;;10.97;100.00;97706.03;15295307;19;20022;-75
2022/09/26 01:15:09;;;;;;;10.05;6.75;;;;;;;10.97;100.00;97700.66;15292086;19;20006;-76
2022/09/26 01:20:39;;;;;;;8.43;6.88;;;;;;;10.97;100.00;97689.03;15297319;19;20015;-74
2022/09/26 01:26:34;;;;;;;8.38;7.03;;;;;;;10.97;100.00;97689.03;15288510;19;20105;-75
2022/09/26 01:38:00;;;;;;;7.45;5.68;;;;;;;10.93;100.00;97683.16;15300303;19;20011;-76
2022/09/26 01:43:32;;;;;;;6.90;5.80;;;;;;;10.91;100.00;97685.19;15355408;19;20029;-77
2022/09/26 01:49:10;;;;;;;9.50;6.28;;;;;;;10.82;100.00;97687.13;15301612;19;20018;-79
2022/09/26 01:54:39;;;;;;;7.93;6.53;;;;;;;10.75;100.00;97694.25;15290877;19;20018;-80
2022/09/26 02:00:07;;;;;;;8.07;6.32;;;;;;;10.68;100.00;97694.13;15297198;19;20755;-80
2022/09/26 02:05:41;;;;;;;9.18;6.85;;;;;;;10.69;100.00;97693.13;15335474;19;20018;-87
2022/09/26 02:11:11;;;;;;;9.95;7.13;;;;;;;10.66;100.00;97687.25;15343406;19;20038;-83
2022/09/26 02:16:48;;;;;;;9.10;7.00;;;;;;;10.67;100.00;97681.69;15298083;19;20006;-81
2022/09/26 02:22:15;;;;;;;9.35;6.25;;;;;;;10.67;100.00;97668.22;15298031;19;20051;-85
2022/09/26 02:27:40;;;;;;;10.50;7.45;;;;;;;10.70;100.00;97667.03;15298120;19;20024;-81
2022/09/26 02:33:11;;;;;;;9.25;6.50;;;;;;;10.68;100.00;97672.59;15295350;19;20171;-84
2022/09/26 02:38:39;;;;;;;10.70;6.50;;;;;;;10.66;100.00;97657.63;15296373;19;20081;-81
2022/09/26 02:44:49;;;;;;;10.50;6.07;;;;;;;10.65;100.00;97654.09;15315606;19;20014;-84
2022/09/26 02:50:38;;;;;;;7.28;4.65;;;;;;;10.61;100.00;97650.91;15325094;19;20023;-82
2022/09/26 02:56:16;;;;;;;6.00;4.10;;;;;;;10.59;100.00;97652.13;15296207;19;20015;-83
2022/09/26 03:01:55;;;;;;;5.75;3.58;;;;;;;10.57;100.00;97641.53;15298705;19;20081;-83
2022/09/26 03:07:26;;;;;;;6.05;2.58;;;;;;;10.54;100.00;97635.66;15294564;19;20053;-84
2022/09/26 03:13:03;;;;;;;6.82;2.58;;;;;;;10.49;100.00;97617.34;15295693;19;20386;-83
2022/09/26 03:18:34;;;;;;;5.68;2.55;;;;;;;10.50;100.00;97610.94;15298645;19;20066;-83
2022/09/26 03:23:59;;;;;;;6.87;2.67;;;;;;;10.46;100.00;97607.78;15306977;19;20003;-83
2022/09/26 03:29:27;;;;;;;4.63;2.38;;;;;;;10.41;100.00;97596.72;15308391;19;20543;-83
2022/09/26 03:34:58;;;;;;;5.70;2.70;;;;;;;10.40;100.00;97594.22;15303906;19;20017;-84
2022/09/26 03:40:23;;;;;;;5.20;3.30;;;;;;;10.31;100.00;97601.47;15307614;19;20017;-84
2022/09/26 03:46:15;;;;;;;5.32;3.42;;;;;;;10.29;100.00;97587.38;15303174;19;20046;-83
2022/09/26 03:51:40;;;;;;;4.68;3.47;;;;;;;10.18;100.00;97597.53;15309652;19;20018;-83
2022/09/26 03:57:05;;;;;;;6.85;3.53;;;;;;;10.09;100.00;97589.69;15313336;19;20078;-83
2022/09/26 04:02:42;;;;;;;6.10;3.38;;;;;;;9.96;100.00;97584.91;15304767;19;20038;-84
2022/09/26 04:08:18;;;;;;;5.82;3.50;;;;;;;9.89;100.00;97589.31;15308221;19;20023;-85
2022/09/26 04:13:43;;;;;;;5.70;3.00;;;;;;;9.83;100.00;97586.31;15302090;19;20028;-85
2022/09/26 04:19:18;;;;;;;4.03;3.08;;;;;;;9.78;100.00;97575.25;15308440;19;20019;-85
2022/09/26 04:24:43;;;;;;;4.70;3.00;;;;;;;9.71;100.00;97563.53;15303957;19;20021;-85
2022/09/26 04:30:10;;;;;;;9.18;3.45;;;;;;;9.62;100.00;97561.91;15308233;19;20019;-85
2022/09/26 04:35:41;;;;;;;5.68;3.70;;;;;;;9.52;100.00;97546.81;15296715;19;20489;-86
2022/09/26 04:41:10;;;;;;;6.35;4.10;;;;;;;9.39;100.00;97542.03;15297179;19;20019;-86
2022/09/26 04:46:35;;;;;;;6.22;4.07;;;;;;;9.32;100.00;97546.41;15292566;19;20027;-86
2022/09/26 04:52:05;;;;;;;9.63;4.53;;;;;;;9.23;100.00;97534.84;15298908;19;20034;-85
2022/09/26 04:57:31;;;;;;;8.77;5.05;;;;;;;9.13;100.00;97542.28;15320219;19;20023;-85
2022/09/26 05:02:55;;;;;;;10.02;7.30;;;;;;;9.08;100.00;97542.81;15303192;19;20018;-85
2022/09/26 05:08:23;;;;;;;7.93;5.75;;;;;;;9.04;100.00;97532.59;15299298;19;20007;-84
2022/09/26 05:13:54;;;;;;;9.35;5.35;;;;;;;8.99;100.00;97535.78;15337534;19;20022;-86
2022/09/26 05:19:20;;;;;;;7.97;5.15;;;;;;;8.92;100.00;97532.97;15316290;19;20018;-86
2022/09/26 05:30:44;;;;;;;6.60;4.75;;;;;;;8.76;100.00;97536.53;15299108;19;20015;-85
2022/09/26 05:36:09;;;;;;;5.75;4.38;;;;;;;8.74;100.00;97535.03;15293846;19;20011;-85
2022/09/26 05:41:36;;;;;;;6.88;4.50;;;;;;;8.70;100.00;97533.69;15295041;19;20022;-85
2022/09/26 05:47:01;;;;;;;8.27;4.70;;;;;;;8.69;100.00;97535.56;15296533;19;20029;-84
2022/09/26 05:52:26;;;;;;;12.70;6.07;;;;;;;8.70;100.00;97536.38;15287781;19;20361;-83
2022/09/26 05:58:06;;;;;;;10.57;6.43;;;;;;;8.74;100.00;97537.72;15299186;19;20018;-84
2022/09/26 06:03:58;;;;;;;11.68;6.25;;;;;;;8.79;100.00;97546.09;15291651;19;20455;-84
2022/09/26 06:09:40;;;;;;;7.80;5.93;;;;;;;8.79;100.00;97551.47;15295723;19;20042;-83
2022/09/26 06:15:34;;;;;;;6.80;5.55;;;;;;;8.81;100.00;97544.06;15301729;19;20019;-82
2022/09/26 06:21:02;;;;;;;8.98;5.22;;;;;;;8.84;100.00;97548.25;15296023;19;20014;-82
2022/09/26 06:26:29;;;;;;;8.25;5.00;;;;;;;8.86;100.00;97546.25;15294553;19;20022;-83
2022/09/26 06:31:57;;;;;;;7.72;5.50;;;;;;;8.92;100.00;97541.03;15298398;19;20026;-82
2022/09/26 06:37:43;;;;;;;8.50;5.63;;;;;;;8.98;100.00;97533.28;15295192;19;20502;-83
2022/09/26 06:43:08;;;;;;;8.00;5.20;;;;;;;9.03;100.00;97536.28;15296112;19;20700;-82
2022/09/26 06:48:54;;;;;;;6.50;4.85;;;;;;;9.09;100.00;97535.59;15297046;19;20014;-83
2022/09/26 06:54:31;;;;;;;6.95;4.35;;;;;;;9.15;100.00;97529.53;15295876;19;20022;-84
2022/09/26 06:59:56;;;;;;;4.55;3.47;;;;;;;9.17;100.00;97521.31;15302389;19;20046;-83
2022/09/26 07:05:42;;;;;;;9.02;4.38;;;;;;;9.28;100.00;97523.59;15326828;19;20018;-83
2022/09/26 07:11:10;;;;;;;6.00;3.25;;;;;;;9.31;100.00;97515.16;15309733;19;20021;-83
2022/09/26 07:16:55;;;;;;;5.20;2.63;;;;;;;9.38;100.00;97512.63;15283235;19;20042;-84
2022/09/26 07:22:50;;;;;;;4.40;3.30;;;;;;;9.55;100.00;97522.28;15294846;19;20018;-82
2022/09/26 07:28:15;;;;;;;4.78;3.10;;;;;;;9.66;100.00;97521.03;15296631;19;20010;-83
2022/09/26 07:33:40;;;;;;;4.60;2.90;;;;;;;9.73;100.00;97504.19;15297071;19;20062;-81
2022/09/26 07:39:08;;;;;;;4.22;2.30;;;;;;;9.81;100.00;97502.28;15292714;19;20030;-80
2022/09/26 07:44:32;;;;;;;3.75;1.90;;;;;;;9.86;100.00;97483.75;15291486;19;20015;-82
2022/09/26 07:50:17;;;;;;;2.42;1.65;;;;;;;9.95;100.00;97475.59;15296244;19;20022;-81
2022/09/26 08:01:44;;;;;;;3.65;1.50;;;;;;;10.29;100.00;97460.84;15292274;19;20019;-81
2022/09/26 08:07:15;;;;;;;;;;;;;;;10.35;100.00;97433.19;15299416;19;20018;-82
2022/09/26 08:12:55;;;;;;;2.00;1.25;;;;;;;10.57;100.00;97434.16;15297356;19;19922;-81
2022/09/26 08:18:34;;;;;;;5.32;1.38;;;;;;;10.68;100.00;97430.16;15304533;19;20030;-81
2022/09/26 08:23:58;;;;;;;2.17;1.08;;;;;;;10.81;100.00;97418.75;15305891;19;20018;-82
2022/09/26 08:29:53;;;;;;;2.63;1.10;;;;;;;10.92;100.00;97406.63;15300625;19;20010;-81
2022/09/26 08:35:17;;;;;;;2.25;1.00;;;;;;;11.09;100.00;97408.09;15306953;19;20015;-82
2022/09/26 08:41:08;;;;;;;3.35;1.20;;;;;;;11.30;100.00;97397.50;15343595;19;20018;-84
2022/09/26 08:47:16;;;;;;;2.13;1.10;;;;;;;11.47;100.00;97392.69;15322389;19;20037;-82
2022/09/26 08:53:12;;;;;;;6.22;1.38;;;;;;;11.58;100.00;97378.72;15297951;19;20025;-83
2022/09/26 08:58:47;;;;;;;3.40;1.17;;;;;;;11.76;100.00;97366.63;15299232;19;20494;-80
2022/09/26 09:04:19;;;;;;;3.67;1.02;;;;;;;11.95;100.00;97360.53;15297013;19;20035;-82
2022/09/26 09:09:46;;;;;;;2.88;1.10;;;;;;;12.10;100.00;97349.69;15297601;19;20034;-81
2022/09/26 09:15:47;;;;;;;2.95;1.00;;;;;;;12.35;100.00;97354.59;15302493;19;20014;-80
2022/09/26 09:21:45;;;;;;;1.65;0.95;;;;;;;12.61;100.00;97361.16;15297531;19;20006;-80
2022/09/26 09:27:58;;;;;;;2.38;1.10;;;;;;;12.74;100.00;97341.50;15298291;19;20058;-81
2022/09/26 09:33:30;;;;;;;2.42;1.08;;;;;;;12.78;100.00;97337.34;15292026;19;20006;-82
2022/09/26 09:39:26;;;;;;;2.95;1.27;;;;;;;13.05;100.00;97332.03;15296885;19;20018;-82
2022/09/26 09:45:07;;;;;;;2.20;0.77;;;;;;;13.26;100.00;97331.84;15302766;19;20042;-82
2022/09/26 09:50:42;;;;;;;2.58;0.70;;;;;;;13.38;100.00;97323.13;15306183;19;20328;-81
2022/09/26 09:56:21;;;;;;;2.45;0.90;;;;;;;13.44;100.00;97314.22;15301937;19;20465;-81
2022/09/26 10:01:49;;;;;;;2.08;0.77;;;;;;;13.46;100.00;97293.22;15298935;19;20038;-80
2022/09/26 10:07:15;;;;;;;2.10;0.90;;;;;;;13.51;100.00;97298.00;15303645;19;20010;-80
2022/09/26 10:13:12;;;;;;;2.22;0.80;;;;;;;13.75;100.00;97288.41;15290248;19;20020;-81
2022/09/26 10:19:07;;;;;;;1.52;0.70;;;;;;;13.70;100.00;97289.03;15294112;19;20033;-83
2022/09/26 10:24:40;;;;;;;2.90;1.02;;;;;;;13.83;100.00;97282.75;15289395;19;20010;-81
2022/09/26 10:30:24;;;;;;;2.58;0.82;;;;;;;13.87;100.00;97269.66;15294899;19;20029;-81
2022/09/26 10:35:56;;;;;;;2.00;0.90;;;;;;;14.02;100.00;97269.41;15286777;19;20030;-83
2022/09/26 10:41:26;;;;;;;2.67;0.63;;;;;;;13.91;100.00;97267.38;15292667;19;20043;-81
2022/09/26 10:46:55;;;;;;;2.20;0.73;;;;;;;14.04;100.00;97256.50;15293520;19;20018;-82
2022/09/26 10:52:42;;;;;;;2.40;0.75;;;;;;;14.18;100.00;97252.69;15294883;19;20406;-80
2022/09/26 10:58:16;;;;;;;1.65;0.75;;;;;;;14.24;100.00;97261.03;15290433;19;20019;-81
2022/09/26 11:03:51;;;;;;;1.98;0.70;;;;;;;14.27;100.00;97239.75;15286785;19;20029;-83
2022/09/26 11:09:39;;;;;;;5.25;0.85;;;;;;;14.37;100.00;97239.31;15289152;19;20503;-84
2022/09/26 11:15:33;;;;;;;1.67;0.70;;;;;;;14.26;100.00;97234.56;15284103;19;20010;-83
2022/09/26 11:21:10;;;;;;;2.42;0.73;;;;;;;14.34;100.00;97218.06;15287753;19;20041;-83
2022/09/26 11:26:52;;;;;;;2.63;0.45;;;;;;;14.32;100.00;97218.28;15283425;19;20063;-82
2022/09/26 11:32:22;;;;;;;1.65;0.70;;;;;;;14.42;100.00;97201.53;15286652;19;20014;-83
2022/09/26 11:38:19;;;;;;;2.42;0.70;;;;;;;14.48;100.00;97199.84;15299449;19;20357;-82
2022/09/26 11:43:54;;;;;;;2.78;0.60;;;;;;;14.61;100.00;97197.06;15305586;19;20011;-82
2022/09/26 11:50:01;;;;;;;4.05;0.68;;;;;;;14.48;100.00;97203.41;15301713;19;20045;-81
2022/09/26 11:56:01;;;;;;;0.82;0.50;;;;;;;14.26;100.00;97189.31;15307055;19;20018;-83
2022/09/26 12:01:48;;;;;;;3.30;0.80;;;;;;;14.26;100.00;97186.63;15349343;19;20025;-84
2022/09/26 12:07:20;;;;;;;2.42;0.70;;;;;;;14.30;100.00;97179.72;15344055;19;20011;-80
2022/09/26 12:12:57;;;;;;;1.27;0.63;;;;;;;14.59;100.00;97195.63;15314729;19;20014;-81
2022/09/26 12:18:34;;;;;;;3.25;0.77;;;;;;;14.56;100.00;97166.25;15333884;19;20015;-87
2022/09/26 12:24:03;;;;;;;2.72;0.70;;;;;;;14.92;100.00;97151.22;15358473;19;20017;-83
2022/09/26 12:29:45;;;;;;;2.38;0.60;;;;;;;14.97;100.00;97142.41;15306775;19;20014;-83
2022/09/26 12:35:28;;;;;;;3.08;0.80;;;;;;;14.96;100.00;97138.91;15300457;19;20041;-81
2022/09/26 12:41:04;;;;;;;1.60;0.70;;;;;;;15.23;100.00;97125.06;15310727;19;20022;-82
2022/09/26 12:46:57;;;;;;;3.03;0.70;;;;;;;15.34;100.00;97124.38;15302057;19;20086;-81
2022/09/26 12:52:37;;;;;;;2.95;0.80;;;;;;;15.41;100.00;97108.84;15298220;19;20483;-81
2022/09/26 12:58:18;;;;;;;2.03;0.70;;;;;;;15.62;100.00;97104.03;15305309;19;20024;-83
2022/09/26 13:04:20;;;;;;;1.55;0.60;;;;;;;15.37;100.00;97096.75;15295142;19;20026;-81
2022/09/26 13:10:03;;;;;;;2.47;0.60;;;;;;;15.10;100.00;97099.75;15290484;19;20138;-82
2022/09/26 13:15:34;;;;;;;1.55;0.73;;;;;;;15.00;100.00;97091.28;15290703;19;20015;-82
2022/09/26 13:21:06;;;;;;;2.30;0.90;;;;;;;14.90;100.00;97089.09;15299349;19;20038;-84
2022/09/26 13:26:36;;;;;;;3.05;0.68;;;;;;;14.74;100.00;97076.94;15293828;19;20023;-81
2022/09/26 13:32:08;;;;;;;2.00;0.75;;;;;;;14.77;100.00;97075.66;15295554;19;20018;-81
2022/09/26 13:37:55;;;;;;;2.70;0.63;;;;;;;14.58;100.00;97066.59;15292811;19;20090;-82
2022/09/26 13:43:43;;;;;;;2.35;0.60;;;;;;;14.36;100.00;97072.38;15295676;19;20010;-80
2022/09/26 13:49:16;;;;;;;1.38;0.38;;;;;;;13.95;100.00;97092.59;15297982;19;20774;-83
2022/09/26 13:54:56;;;;;;;0.60;0.35;;;;;;;13.38;100.00;97068.84;15300096;19;20038;-79
2022/09/26 14:00:53;;;;;;;1.05;0.40;;;;;;;13.65;100.00;97058.78;15302333;19;20021;-78
2022/09/26 14:06:30;;;;;;;0.30;0.30;;;;;;;14.26;100.00;97048.47;15302599;19;20121;-81
2022/09/26 14:12:21;;;;;;;0.75;0.40;;;;;;;14.63;100.00;97036.97;15306261;19;20035;-80
2022/09/26 14:18:10;;;;;;;1.52;0.57;;;;;;;15.16;100.00;97032.09;15300633;19;20033;-82
2022/09/26 14:23:48;;;;;;;1.38;0.60;;;;;;;15.21;100.00;97019.50;15297962;19;20028;-80
2022/09/26 14:29:38;;;;;;;1.27;0.50;;;;;;;15.38;100.00;97014.31;15294545;19;20025;-79
2022/09/26 14:35:05;;;;;;;0.83;0.60;;;;;;;15.66;100.00;97010.22;15301471;19;20651;-81
2022/09/26 14:40:34;;;;;;;0.82;0.60;;;;;;;15.59;100.00;96995.06;15305630;19;20395;-81
2022/09/26 14:46:10;;;;;;;0.95;0.50;;;;;;;15.76;100.00;96989.84;15301426;19;20021;-80
2022/09/26 14:51:39;;;;;;;1.02;0.40;;;;;;;15.89;100.00;96981.53;15302430;19;20026;-79
2022/09/26 14:57:09;;;;;;;1.60;0.77;;;;;;;15.98;100.00;96980.13;15298296;19;20031;-80
2022/09/26 15:02:43;;;;;;;1.25;0.70;;;;;;;15.91;100.00;96978.56;15298798;19;20022;-79
2022/09/26 15:08:10;;;;;;;1.65;0.70;;;;;;;15.61;100.00;96971.25;15301234;19;20341;-79
2022/09/26 15:13:38;;;;;;;2.42;0.60;;;;;;;15.12;100.00;96963.91;15307538;19;20617;-80
2022/09/26 15:19:11;;;;;;;1.48;0.70;;;;;;;14.68;100.00;96955.00;15327735;19;20014;-79
2022/09/26 15:24:38;;;;;;;0.50;0.30;;;;;;;14.43;100.00;96955.81;15332561;19;20078;-79
2022/09/26 15:30:04;;;;;;;0.80;0.50;;;;;;;14.15;100.00;96944.41;15329869;19;20603;-79
2022/09/26 15:35:33;;;;;;;0.70;0.30;;;;;;;13.91;100.00;96953.31;15325971;19;20053;-79
2022/09/26 15:41:08;;;;;;;0.52;0.38;;;;;;;13.64;100.00;96940.78;15330459;19;20022;-80
2022/09/26 15:46:33;;;;;;;2.35;0.38;;;;;;;13.37;100.00;96937.34;15332682;19;20022;-79
2022/09/26 15:52:04;;;;;;;1.48;0.40;;;;;;;13.13;100.00;96937.06;15324763;19;20094;-78
2022/09/26 15:57:29;;;;;;;0.95;0.50;;;;;;;12.95;100.00;96935.03;15309002;19;20301;-77
2022/09/26 16:02:57;;;;;;;0.50;0.50;;;;;;;12.81;100.00;96933.44;15359295;19;20010;-80
2022/09/26 16:08:28;;;;;;;0.60;0.60;;;;;;;12.66;100.00;96921.00;15356928;19;20018;-80
2022/09/26 16:13:59;;;;;;;1.70;0.60;;;;;;;12.60;100.00;96921.84;15312684;19;19999;-80
2022/09/26 16:19:36;;;;;;;0.57;0.50;;;;;;;12.33;100.00;96919.19;15325388;19;20007;-81
2022/09/26 16:25:27;;;;;;;0.35;0.35;;;;;;;12.14;100.00;96920.88;15321987;19;20057;-83
2022/09/26 16:31:14;;;;;;;0.80;0.40;;;;;;;12.00;100.00;96920.03;15310367;19;20101;-80
2022/09/26 16:36:41;;;;;;;1.27;0.50;;;;;;;11.93;100.00;96922.72;15295583;19;20049;-80
2022/09/26 16:42:16;;;;;;;1.98;0.40;;;;;;;11.79;100.00;96915.66;15307485;19;20007;-80
2022/09/26 16:47:48;;;;;;;1.73;0.50;;;;;;;11.77;100.00;96915.00;15312488;19;20140;-80
2022/09/26 16:53:14;;;;;;;1.52;0.50;;;;;;;11.72;100.00;96905.66;15302316;19;20040;-79
2022/09/26 16:58:41;;;;;;;1.05;0.32;;;;;;;11.65;100.00;96904.84;15301685;19;20020;-80
2022/09/26 17:04:14;;;;;;;1.10;0.80;;;;;;;11.62;100.00;96905.25;15302190;19;20023;-79
2022/09/26 17:09:40;;;;;;;1.13;0.80;;;;;;;11.55;100.00;96891.75;15358810;19;20125;-79
2022/09/26 17:15:18;;;;;;;1.15;0.70;;;;;;;11.53;100.00;96898.38;15301436;19;20022;-80
2022/09/26 17:20:46;;;;;;;2.17;0.60;;;;;;;11.47;100.00;96891.94;15310360;19;20092;-80
2022/09/26 17:26:12;;;;;;;1.40;1.00;;;;;;;11.44;100.00;96891.53;15301626;19;20011;-80
2022/09/26 17:31:39;;;;;;;1.25;1.10;;;;;;;11.41;100.00;96893.59;15296425;19;20050;-79
2022/09/26 17:37:06;;;;;;;2.10;1.90;;;;;;;11.41;100.00;96890.03;15299165;19;20015;-79
2022/09/26 17:42:31;;;;;;;2.60;0.80;;;;;;;11.40;100.00;96901.91;15297423;19;20024;-81
2022/09/26 17:48:06;;;;;;;0.90;0.50;;;;;;;11.41;100.00;96898.97;15294287;19;20018;-77
2022/09/26 17:53:34;;;;;;;0.50;0.50;;;;;;;11.43;100.00;96896.06;15292950;19;20018;-78
2022/09/26 17:59:05;;;;;;;0.88;0.50;;;;;;;11.47;100.00;96880.31;15298008;19;20035;-77
2022/09/26 18:04:33;;;;;;;0.55;0.50;;;;;;;11.44;100.00;96886.13;15296856;19;20014;-76
2022/09/26 18:09:59;;;;;;;0.65;0.50;;;;;;;11.44;100.00;96867.25;15296344;19;20054;-77
2022/09/26 18:15:30;;;;;;;0.90;0.50;;;;;;;11.44;100.00;96867.25;15293925;19;20443;-78
2022/09/26 18:21:02;;;;;;;1.33;0.60;;;;;;;11.43;100.00;96871.00;15295571;19;20026;-78
2022/09/26 18:26:36;;;;;;;2.70;1.10;;;;;;;11.35;100.00;96856.66;15278960;19;20018;-76
2022/09/26 18:32:01;;;;;;;0.38;0.38;;;;;;;11.34;100.00;96851.47;15280303;19;20026;-75
2022/09/26 18:37:29;;;;;;;0.60;0.60;;;;;;;11.29;100.00;96849.38;15290266;19;20014;-76
2022/09/26 18:42:55;;;;;;;1.95;0.85;;;;;;;11.24;100.00;96841.94;15288974;19;20026;-76
2022/09/26 18:48:32;;;;;;;0.95;0.60;;;;;;;11.22;100.00;96837.78;15285738;19;20014;-76
2022/09/26 18:54:00;;;;;;;0.88;0.60;;;;;;;11.13;100.00;96831.75;15287160;19;20086;-74
2022/09/26 18:59:29;;;;;;;0.90;0.57;;;;;;;11.14;100.00;96828.00;15285799;19;20018;-75
2022/09/26 19:04:58;;;;;;;1.80;0.68;;;;;;;11.10;100.00;96819.50;15282718;19;20014;-76
2022/09/26 19:10:30;;;;;;;1.05;0.70;;;;;;;11.09;100.00;96825.94;15286220;19;20018;-76
2022/09/26 19:16:01;;;;;;;2.37;0.77;;;;;;;11.07;100.00;96814.53;15286410;19;20014;-75
2022/09/26 19:21:32;;;;;;;1.40;0.60;;;;;;;11.07;100.00;96800.19;15286226;19;20046;-75
2022/09/26 19:27:03;;;;;;;1.20;0.50;;;;;;;11.07;100.00;96803.75;15288323;19;20018;-76
2022/09/26 19:32:32;;;;;;;0.98;0.45;;;;;;;11.05;100.00;96792.34;15286768;19;20026;-77
2022/09/26 19:37:57;;;;;;;1.30;0.55;;;;;;;11.08;100.00;96786.53;15300170;19;20423;-76
2022/09/26 19:43:24;;;;;;;1.13;0.55;;;;;;;11.05;100.00;96797.72;15350047;19;20014;-75
2022/09/26 19:48:49;;;;;;;2.25;0.40;;;;;;;11.04;100.00;96787.16;15286985;19;20110;-76
2022/09/26 19:54:18;;;;;;;1.27;0.50;;;;;;;11.03;100.00;96791.69;15289503;19;20011;-76
2022/09/26 19:59:46;;;;;;;0.88;0.40;;;;;;;11.00;100.00;96794.81;15278816;19;20026;-76
2022/09/26 20:05:19;;;;;;;0.63;0.40;;;;;;;10.93;100.00;96785.88;15295624;19;20535;-76
2022/09/26 20:10:43;;;;;;;0.82;0.47;;;;;;;10.94;100.00;96774.91;15296751;19;20442;-76
2022/09/26 20:16:14;;;;;;;0.50;0.50;;;;;;;10.91;100.00;96775.31;15293435;19;20014;-76
2022/09/26 20:21:39;;;;;;;0.40;0.30;;;;;;;10.91;100.00;96764.53;15294750;19;20039;-76
2022/09/26 20:27:06;;;;;;;1.17;0.43;;;;;;;10.89;100.00;96761.22;15291958;19;20100;-77
2022/09/26 20:32:34;;;;;;;1.42;0.50;;;;;;;10.87;100.00;96746.31;15292635;19;20094;-77
2022/09/26 20:38:04;;;;;;;0.47;0.30;;;;;;;10.83;100.00;96734.28;15294736;19;20031;-77
2022/09/26 20:43:36;;;;;;;0.70;0.47;;;;;;;10.83;100.00;96728.88;15298170;19;20023;-77
2022/09/26 20:49:06;;;;;;;0.40;0.30;;;;;;;10.83;100.00;96731.56;15297389;19;20015;-77
2022/09/26 20:54:36;;;;;;;0.53;0.40;;;;;;;10.77;100.00;96717.88;15294311;19;20018;-77
2022/09/26 21:00:00;;;;;;;0.65;0.30;;;;;;;10.73;100.00;96705.88;15293960;19;20467;-77
2022/09/26 21:05:31;;;;;;;1.63;0.50;;;;;;;10.72;100.00;96696.13;15297036;19;20018;-75
2022/09/26 21:10:58;;;;;;;1.02;0.40;;;;;;;10.73;100.00;96692.41;15291602;19;20010;-76
2022/09/26 21:16:24;;;;;;;0.52;0.40;;;;;;;10.70;100.00;96671.25;15296006;19;20762;-76
2022/09/26 21:21:51;;;;;;;0.35;0.32;;;;;;;10.72;100.00;96669.19;15293545;19;20029;-76
2022/09/26 21:27:24;;;;;;;0.70;0.50;;;;;;;10.74;100.00;96664.44;15288169;19;20478;-76
2022/09/26 21:32:51;;;;;;;0.70;0.50;;;;;;;10.78;100.00;96659.47;15289796;19;20015;-77
2022/09/26 21:38:19;;;;;;;0.70;0.50;;;;;;;10.77;100.00;96649.72;15295760;19;20487;-75
2022/09/26 21:43:47;;;;;;;1.02;0.60;;;;;;;10.77;100.00;96649.72;15294445;19;20015;-75
2022/09/26 21:49:12;;;;;;;1.17;0.50;;;;;;;10.78;100.00;96640.63;15293426;19;20023;-74
2022/09/26 21:54:42;;;;;;;1.42;0.57;;;;;;;10.79;100.00;96632.31;15292457;19;20021;-75
2022/09/26 22:00:09;;;;;;;0.90;0.50;;;;;;;10.78;100.00;96611.81;15288556;19;20111;-75
2022/09/26 22:05:34;;;;;;;1.30;0.60;;;;;;;10.78;100.00;96606.41;15294873;19;20024;-77
2022/09/26 22:11:03;;;;;;;1.25;0.50;;;;;;;10.79;100.00;96594.59;15296585;19;20022;-76
2022/09/26 22:16:28;;;;;;;1.20;0.55;;;;;;;10.79;100.00;96577.63;15288583;19;20470;-76
2022/09/26 22:21:53;;;;;;;2.13;0.60;;;;;;;10.82;100.00;96566.41;15284563;19;20014;-75
2022/09/26 22:27:21;;;;;;;1.52;0.73;;;;;;;10.81;100.00;96561.25;15288354;19;20029;-76
2022/09/26 22:32:46;;;;;;;0.32;0.30;;;;;;;10.83;100.00;96556.50;15284666;19;20014;-76
2022/09/26 22:38:10;;;;;;;0.50;0.47;;;;;;;10.82;100.00;96544.06;15295214;19;20010;-75
2022/09/26 22:43:39;;;;;;;0.90;0.40;;;;;;;10.86;100.00;96537.22;15294680;19;20026;-77
2022/09/26 22:49:04;;;;;;;0.52;0.40;;;;;;;10.85;100.00;96535.56;15287756;19;20022;-76
2022/09/26 22:54:29;;;;;;;0.55;0.40;;;;;;;10.86;100.00;96527.25;15289879;19;20053;-78
2022/09/26 22:59:56;;;;;;;2.17;0.60;;;;;;;10.89;100.00;96524.16;15292356;19;20010;-76
2022/09/26 23:05:21;;;;;;;1.15;0.60;;;;;;;10.95;100.00;96514.41;15320843;19;20022;-77
2022/09/26 23:10:50;;;;;;;0.95;0.52;;;;;;;10.99;100.00;96501.34;15318079;19;20015;-76
2022/09/26 23:16:20;;;;;;;0.90;0.50;;;;;;;11.01;100.00;96489.31;15286934;19;20010;-75
2022/09/26 23:21:45;;;;;;;0.68;0.40;;;;;;;11.02;100.00;96480.19;15287350;19;20607;-75
2022/09/26 23:27:10;;;;;;;0.93;0.50;;;;;;;11.03;100.00;96481.03;15280996;19;20019;-76
2022/09/26 23:32:37;;;;;;;1.15;0.45;;;;;;;11.03;100.00;96473.75;15275417;19;20021;-76
2022/09/26 23:38:04;;;;;;;1.27;0.50;;;;;;;11.04;100.00;96469.22;15293647;19;20022;-77
2022/09/26 23:43:29;;;;;;;0.47;0.40;;;;;;;11.04;100.00;96453.03;15292935;19;20019;-76
2022/09/26 23:48:56;;;;;;;1.17;0.60;;;;;;;11.08;100.00;96452.41;15299635;19;20014;-76
2022/09/26 23:54:20;;;;;;;1.52;0.60;;;;;;;11.06;100.00;96449.09;15290668;19;20021;-77
2022/09/26 23:59:52;;;;;;;0.57;0.40;;;;;;;11.08;100.00;96446.16;15297522;19;20035;-77
